Ride Results

Kiwarrak Endurance Ride (25-10-2014)
Ride distance: 80.0 km

Outcomes - Kiwarrak Endurance Ride (25-10-2014)
Division No. of Entries Retired / DNE Completed Withdrawn Ineligible V/O Percentage Completed
HW 14 - 9 - - 5 64.29%
MW 18 - 9 1 - 8 50.00%
LW 13 - 12 1 - - 92.31%
JN 5 - 3 1 - 1 60.00%
Totals 50 - 33 3 - 14 66.00%
Results - Kiwarrak Endurance Ride (25-10-2014)
No. Rider Horse Place Time Leg Speeds Total
Km/Hr
H/R bpm
Heavyweight
1 Chris Geddes Baribo 1 6:02:00 13.2, 13.2 13.26 36, 49, 54 (Avg:51)
29 Dallas Blakely Ahnoosa 2 (BC) 6:24:00 13.2, 11.8 12.50 39, 48, 58 (Avg:53)
24 Keith Sumpner Fonda 3 8:13:00 12.6, 7.9 9.74 39, 47, 59 (Avg:53)
42 Phil Coleman Rainbows Reach Dark N Stormy 4 8:28:00 10.8, 8.3 9.45 37, 41, 46 (Avg:43)
27 Gary Thomas Nyora Master 5 8:38:00 10.9, 8.0 9.27 40, 51, 58 (Avg:54)
13 Sue Warren Razorback Flash 5 8:38:00 11.5, 7.7 9.27 38, 47, 53 (Avg:50)
44 Nigel Colefax A'Landell Sampson 7 9:16:00 9.7, 7.7 8.63 36, 43, 48 (Avg:45)
21 Haydn Fisher Raymar Aden 7 9:16:00 9.4, 7.9 8.63 38, 41, 54 (Avg:47)
3 Scott Peters A'Landell Charlie 9 9:17:00 9.6, 7.7 8.62 36, 43, 49 (Avg:46)
10 Graeme Burchell Delaware Heart Rate L2 0:00:00 12.5, 8.5 - 41, 46, 65 (Avg:55)
26 Jody Harrison Phoenix Lame L2 0:00:00 9.7, 6.9 - 35, 47, 56 (Avg:51)
18 Janette Nelson Hampton Park Jack Heart Rate L2 0:00:00 10.9, 7.9 - 37, 45, 66 (Avg:55)
23 Gabriel Wood Clovelly Park Samson Heart Rate L2 0:00:00 12.6, 9.8 - 33, 47, 70 (Avg:58)
8 Thomas Hermann TTH Headliner Lame L1 0:00:00 15.5 - 35, 46, 51 (Avg:48)
Middleweight
31 Sonya Ruprecht Alex-Ville God Be Gift 1 (BC) 6:20:00 12.9, 12.3 12.63 31, 40, 44 (Avg:42)
35 Jennifer Gilbertson Webbs Creek Cattle Baron 2 6:21:00 13.3, 11.9 12.60 39, 52, 57 (Avg:54)
39 Fiona Meller Malu Vale Embers 3 6:44:00 13.3, 10.7 11.88 35, 40, 59 (Avg:49)
15 Peter Kelly Kerewong Aziz 4 6:54:00 12.9, 10.5 11.59 36, 54, 54 (Avg:54)
49 Codey Bergsma Monarch Lodge Galaxy 5 7:10:00 11.9, 10.4 11.16 35, 38, 55 (Avg:46)
14 Tayla Warren Lilonda Sharjah 6 7:17:00 11.5, 10.4 10.98 38, 43, 57 (Avg:50)
47 Darryl King James Bonn 7 7:33:00 12.3, 9.2 10.60 38, 47, 51 (Avg:49)
37 Ruth Van der Wegen Aloha Ameer 8 8:06:00 11.0, 8.9 9.88 32, 37, 54 (Avg:45)
4 Chris Noonan Bridle Track Kool Breeze 9 8:28:00 10.9, 8.3 9.45 31, 44, 53 (Avg:48)
17 Tracy Broadbent Swamp Rock Heart Rate L2 0:00:00 13.2, 10.5 - 40, 45, 70 (Avg:57)
45 Marion Lengronne Flemingo Jumping Jack Flash Heart Rate L2 0:00:00 13.2, 10.3 - 40, 54, 70 (Avg:62)
19 Tracey Morley Antaarez Heart Rate L2 0:00:00 10.8, 8.0 - 46, 51, 70 (Avg:60)
38 David Player Ryton Pipes of Peace Heart Rate L2 0:00:00 13.3, 10.7 - 27, 40, 65 (Avg:52)
5 Victoria Bonham Duray Djuan Metabolics moderate L1 0:00:00 9.9 - 37, 55 (Avg:55)
20 Gail Fisher Misty Heights Romance Heart Rate L1 0:00:00 9.1 - 34, 60 (Avg:60)
48 Meg Garzaniti Shanadarr Khaleel Withdrawn L1 0:00:00 - - 28, 41 (Avg:41)
40 Dieter Schuelein Shiraz Lame L1 0:00:00 13.1 - 39, 42 (Avg:42)
32 Jackie Tattam Nyora Dust of Gold Lame L1 0:00:00 12.6 - 39, 44 (Avg:44)
Lightweight
12 Anne Hills Evening Star 1 (BC) 5:22:00 15.5, 14.2 14.91 36, 39, 51 (Avg:45)
41 Renee Schneider Badia Just Rosie 2 5:34:00 13.1, 15.8 14.37 37, 43, 51 (Avg:47)
30 Antonia Somerville Allyndah Dezynah Vogue 3 5:34:05 15.0, 13.7 14.37 39, 43, 55 (Avg:49)
22 Lyn Dillon Banfield Khamsin 4 6:52:00 13.6, 10.1 11.65 35, 46, 52 (Avg:49)
28 Zoe Locke Graciella 4 6:52:00 12.6, 10.8 11.65 29, 38, 56 (Avg:47)
46 Clare Fleming Cameo Shy-Anne 6 6:54:00 13.2, 10.3 11.59 36, 48, 53 (Avg:50)
7 Linda Logan Willow Valley Dartanyan 7 7:22:00 11.9, 9.9 10.86 40, 41, 57 (Avg:49)
16 Xanthe Webb Ramalea Laila 8 7:24:00 12.9, 9.3 10.81 40, 45, 54 (Avg:49)
2 Carol Layton New-Moon Flashlight 9 7:33:00 12.4, 9.1 10.60 46, 44, 48 (Avg:46)
36 Allix Jones Aloha Aktar 10 8:06:00 11.0, 8.9 9.88 33, 39, 42 (Avg:40)
43 Ros Ryan Rainbows Reach Scout 11 8:28:00 10.8, 8.3 9.45 35, 36, 49 (Avg:42)
81 Jade Hodson Rush Creek Gift 12 9:05:00 10.7, 7.4 8.81 36, 54, 58 (Avg:56)
11 Sarah Ross New Kingston Withdrawn L1 0:00:00 - - 40, 40 (Avg:40)
Junior
33 Tahlia Franke Kalkadoon Vienna 1 (BC) 5:22:00 15.5, 14.2 14.91 39, 44, 47 (Avg:45)
82 Georgia Curry Ausden Nile Prins 2 7:10:00 12.5, 10.0 11.16 38, 48, 56 (Avg:52)
6 Isabel Foster Sienna Kaptivating 3 9:16:00 9.7, 7.7 8.63 34, 36, 53 (Avg:44)
34 Josephine Jansen Coolahlee Park Samba Lame L2 0:00:00 13.3, 11.9 - 38, 45, 53 (Avg:49)
80 Mia Bodewes Booramby Jacob Withdrawn L1 0:00:00 - - 38, 39, 49 (Avg:44)